Disclaimer

Please do not use the information listed here in-flight or in-navigation, as they are not provided to us by the airports but are provided by volunteers, so they might be outdated.

Search


Regions


Airport information page

Radio informations:
BIARRITZ TWR - 121.95 MHz
BIARRITZ GND - 121.95 MHz
Automatic Terminal Information Service (ATIS) - 128.225 MHz
BIARRITZ APP - 125.6 MHz

Airport informations:
Latitude: 43° 28' 06.31" N
Longitude: 001° 31' 23.97" W
Elevation: 245 feet - 75 meters
Operating hours: Remarks
Operating agency: Civil government, landing fees and diplomatic clearance may be required
Timezone: UTC+1(+2DT) - Last Sunday in March to last Sunday in October
Fuel: Jet A1, without icing nhibitor.

100/130 MIL Spec, low lead, aviation gasoline (BLUE)

Runway information:
09/27 - 7382 x 148 feet< - >2250 x 45 meters

Recent METARs:
LFBZ 202300Z AUTO 07004KT 9000 SCT060 OVC090 04/03 Q1006 TEMPO 3000 BR
LFBZ 202330Z AUTO 11003KT 7000 BKN058 BKN094 03/03 Q1006 TEMPO 3000 BR
LFBZ 210000Z AUTO 11004KT 6000 BKN056 OVC086 04/03 Q1006 TEMPO 3000 BR

Airport on the map: